createdAt,value
2018-07-27T00:00:02.069Z,22.81
2018-07-27T00:01:02.164Z,22.76
2018-07-27T00:02:02.357Z,22.75
2018-07-27T00:03:02.075Z,22.75
2018-07-27T00:04:01.822Z,22.8
2018-07-27T00:05:01.852Z,22.8
2018-07-27T00:06:02.141Z,22.76
2018-07-27T00:07:02.118Z,22.76
2018-07-27T00:08:02.350Z,22.83
2018-07-27T00:09:02.364Z,22.75
2018-07-27T00:10:01.851Z,22.76
2018-07-27T00:11:02.409Z,22.76
2018-07-27T00:12:01.855Z,22.76
2018-07-27T00:13:02.126Z,22.69
2018-07-27T00:14:02.146Z,22.66
2018-07-27T00:15:02.368Z,22.62
2018-07-27T00:16:02.154Z,22.63
2018-07-27T00:17:02.128Z,22.65
2018-07-27T00:18:02.405Z,22.63
2018-07-27T00:19:02.124Z,22.6
2018-07-27T00:20:02.144Z,22.55
2018-07-27T00:21:02.154Z,22.62
2018-07-27T00:22:01.870Z,22.6
2018-07-27T00:23:02.409Z,22.51
2018-07-27T00:24:02.393Z,22.48
2018-07-27T00:25:02.405Z,22.44
2018-07-27T00:26:02.177Z,22.48
2018-07-27T00:27:02.149Z,22.45
2018-07-27T00:28:02.401Z,22.59
2018-07-27T00:29:02.163Z,22.48
2018-07-27T00:30:02.201Z,22.47
2018-07-27T00:31:02.427Z,22.45
2018-07-27T00:32:02.441Z,22.45
2018-07-27T00:33:02.159Z,22.44
2018-07-27T00:34:02.579Z,22.41
2018-07-27T00:35:02.172Z,22.43
2018-07-27T00:36:01.927Z,22.47
2018-07-27T00:37:01.921Z,22.33
2018-07-27T00:38:01.932Z,22.36
2018-07-27T00:39:02.182Z,22.32
2018-07-27T00:40:02.445Z,22.39
2018-07-27T00:41:02.012Z,22.29
2018-07-27T00:42:01.948Z,22.33
2018-07-27T00:43:02.189Z,22.26
2018-07-27T00:44:02.448Z,22.3
2018-07-27T00:45:02.455Z,22.28
2018-07-27T00:46:02.493Z,22.3
2018-07-27T00:47:01.962Z,22.2
2018-07-27T00:48:01.949Z,22.22
2018-07-27T00:49:02.209Z,22.2
2018-07-27T00:50:02.209Z,22.11
2018-07-27T00:51:02.046Z,22.15
2018-07-27T00:52:02.473Z,22.15
2018-07-27T00:53:02.222Z,22.1
2018-07-27T00:54:02.486Z,22.15
2018-07-27T00:55:02.478Z,22.04
2018-07-27T00:56:02.502Z,22.04
2018-07-27T00:57:02.238Z,21.98
2018-07-27T00:58:02.231Z,22
2018-07-27T00:59:02.243Z,22.02
2018-07-27T01:00:02.240Z,22.06
2018-07-27T01:01:02.495Z,22.06
2018-07-27T01:02:02.511Z,21.85
2018-07-27T01:03:02.245Z,21.91
2018-07-27T01:04:01.990Z,21.92
2018-07-27T01:05:02.252Z,21.85
2018-07-27T01:06:02.513Z,21.96
2018-07-27T01:07:02.244Z,21.92
2018-07-27T01:08:02.009Z,21.89
2018-07-27T01:09:02.524Z,21.96
2018-07-27T01:10:02.256Z,21.91
2018-07-27T01:11:02.046Z,21.91
2018-07-27T01:12:02.266Z,21.92
2018-07-27T01:13:02.533Z,22.02
2018-07-27T01:14:02.015Z,22
2018-07-27T01:15:02.279Z,21.95
2018-07-27T01:16:02.021Z,22.08
2018-07-27T01:17:02.279Z,22
2018-07-27T01:18:02.027Z,22.04
2018-07-27T01:19:02.025Z,22
2018-07-27T01:20:02.284Z,21.98
2018-07-27T01:21:02.572Z,21.93
2018-07-27T01:22:02.336Z,21.95
2018-07-27T01:23:02.046Z,21.92
2018-07-27T01:24:02.046Z,21.89
2018-07-27T01:25:02.344Z,21.88
2018-07-27T01:26:02.354Z,21.85
2018-07-27T01:27:02.316Z,21.83
2018-07-27T01:28:02.583Z,21.75
2018-07-27T01:29:02.566Z,21.75
2018-07-27T01:30:02.570Z,21.79
2018-07-27T01:31:02.334Z,21.83
2018-07-27T01:32:02.573Z,21.89
2018-07-27T01:33:02.314Z,21.89
2018-07-27T01:34:02.338Z,21.91
2018-07-27T01:35:02.355Z,21.89
2018-07-27T01:36:02.644Z,21.98
2018-07-27T01:37:02.334Z,21.96
2018-07-27T01:38:02.346Z,21.93
2018-07-27T01:39:02.627Z,22.04
2018-07-27T01:40:02.336Z,22.04
2018-07-27T01:41:02.652Z,22.07
2018-07-27T01:42:02.087Z,22
2018-07-27T01:43:02.346Z,22.04
2018-07-27T01:44:02.337Z,22.11
2018-07-27T01:45:02.614Z,22
2018-07-27T01:46:02.648Z,22.04
2018-07-27T01:47:02.618Z,22.13
2018-07-27T01:48:02.384Z,22.14
2018-07-27T01:49:02.635Z,22.14
2018-07-27T01:50:02.361Z,22.1
2018-07-27T01:51:02.448Z,22.13
2018-07-27T01:52:02.381Z,22.11
2018-07-27T01:53:02.631Z,22.17
2018-07-27T01:54:02.651Z,22.13
2018-07-27T01:55:02.376Z,22.13
2018-07-27T01:56:02.123Z,22.13
2018-07-27T01:57:02.386Z,22.02
2018-07-27T01:58:02.646Z,22.07
2018-07-27T01:59:02.720Z,22.07
2018-07-27T02:00:02.394Z,21.92
2018-07-27T02:01:02.429Z,21.93
2018-07-27T02:02:02.125Z,21.96
2018-07-27T02:03:02.398Z,21.92
2018-07-27T02:04:02.646Z,21.93
2018-07-27T02:05:02.403Z,21.88
2018-07-27T02:06:02.653Z,21.98
2018-07-27T02:07:02.666Z,21.95
2018-07-27T02:08:02.411Z,21.92
2018-07-27T02:09:02.684Z,21.92
2018-07-27T02:10:02.663Z,21.93
2018-07-27T02:11:02.741Z,21.91
2018-07-27T02:12:02.499Z,21.96
2018-07-27T02:13:02.823Z,21.96
2018-07-27T02:14:02.409Z,21.96
2018-07-27T02:15:02.417Z,21.91
2018-07-27T02:16:02.512Z,21.92
2018-07-27T02:17:02.673Z,21.85
2018-07-27T02:18:02.447Z,21.93
2018-07-27T02:19:02.420Z,21.96
2018-07-27T02:20:02.689Z,21.92
2018-07-27T02:21:02.686Z,21.85
2018-07-27T02:22:02.174Z,21.89
2018-07-27T02:23:02.699Z,21.95
2018-07-27T02:24:02.435Z,21.89
2018-07-27T02:25:02.448Z,21.79
2018-07-27T02:26:02.479Z,21.93
2018-07-27T02:27:02.425Z,21.82
2018-07-27T02:28:02.711Z,21.89
2018-07-27T02:29:02.452Z,21.92
2018-07-27T02:30:02.722Z,21.88
2018-07-27T02:31:02.755Z,21.73
2018-07-27T02:32:02.736Z,21.72
2018-07-27T02:33:02.733Z,21.69
2018-07-27T02:34:02.463Z,21.69
2018-07-27T02:35:02.729Z,21.72
2018-07-27T02:36:02.760Z,21.69
2018-07-27T02:37:02.201Z,21.66
2018-07-27T02:38:02.753Z,21.64
2018-07-27T02:39:02.776Z,21.69
2018-07-27T02:40:03.023Z,21.62
2018-07-27T02:41:02.819Z,21.58
2018-07-27T02:42:02.743Z,21.58
2018-07-27T02:43:02.760Z,21.62
2018-07-27T02:44:02.749Z,21.54
2018-07-27T02:45:02.797Z,21.66
2018-07-27T02:46:02.527Z,21.51
2018-07-27T02:47:02.744Z,21.54
2018-07-27T02:48:02.766Z,21.5
2018-07-27T02:49:02.755Z,21.46
2018-07-27T02:50:02.482Z,21.51
2018-07-27T02:51:02.769Z,21.52
2018-07-27T02:52:02.488Z,21.51
2018-07-27T02:53:02.763Z,21.51
2018-07-27T02:54:02.786Z,21.51
2018-07-27T02:55:02.792Z,21.46
2018-07-27T02:56:02.607Z,21.57
2018-07-27T02:57:02.777Z,21.54
2018-07-27T02:58:02.798Z,21.5
2018-07-27T02:59:02.792Z,21.61
2018-07-27T03:00:02.504Z,21.58
2018-07-27T03:01:02.517Z,21.52
2018-07-27T03:02:02.780Z,21.6
2018-07-27T03:03:02.505Z,21.54
2018-07-27T03:04:02.524Z,21.51
2018-07-27T03:05:02.777Z,21.55
2018-07-27T03:06:02.872Z,21.57
2018-07-27T03:07:02.772Z,21.46
2018-07-27T03:08:02.783Z,21.48
2018-07-27T03:09:02.516Z,21.54
2018-07-27T03:10:02.529Z,21.45
2018-07-27T03:11:02.873Z,21.48
2018-07-27T03:12:02.522Z,21.39
2018-07-27T03:13:02.528Z,21.37
2018-07-27T03:14:02.798Z,21.33
2018-07-27T03:15:02.833Z,21.46
2018-07-27T03:16:02.862Z,21.4
2018-07-27T03:17:02.820Z,21.48
2018-07-27T03:18:02.800Z,21.45
2018-07-27T03:19:02.830Z,21.45
2018-07-27T03:20:02.810Z,21.37
2018-07-27T03:21:02.609Z,21.36
2018-07-27T03:22:02.820Z,21.36
2018-07-27T03:23:02.831Z,21.37
2018-07-27T03:24:02.560Z,21.35
2018-07-27T03:25:02.548Z,21.4
2018-07-27T03:26:02.851Z,21.37
2018-07-27T03:27:02.562Z,21.36
2018-07-27T03:28:02.552Z,21.39
2018-07-27T03:29:02.817Z,21.35
2018-07-27T03:30:02.305Z,21.36
2018-07-27T03:31:02.826Z,21.45
2018-07-27T03:32:02.825Z,21.43
2018-07-27T03:33:03.068Z,21.27
2018-07-27T03:34:02.839Z,21.4
2018-07-27T03:35:02.842Z,21.32
2018-07-27T03:36:02.614Z,21.39
2018-07-27T03:37:02.564Z,21.37
2018-07-27T03:38:02.599Z,21.37
2018-07-27T03:39:02.314Z,21.22
2018-07-27T03:40:02.838Z,21.2
2018-07-27T03:41:02.848Z,21.2
2018-07-27T03:42:03.003Z,21.2
2018-07-27T03:43:02.860Z,21.21
2018-07-27T03:44:02.597Z,21.27
2018-07-27T03:45:02.872Z,21.22
2018-07-27T03:46:02.890Z,21.17
2018-07-27T03:47:02.341Z,21.15
2018-07-27T03:48:02.594Z,21.15
2018-07-27T03:49:02.869Z,21.09
2018-07-27T03:50:02.860Z,21.11
2018-07-27T03:51:02.697Z,21.09
2018-07-27T03:52:02.881Z,21.06
2018-07-27T03:53:02.613Z,21
2018-07-27T03:54:02.350Z,21.03
2018-07-27T03:55:02.351Z,21.05
2018-07-27T03:56:02.644Z,20.99
2018-07-27T03:57:02.896Z,20.9
2018-07-27T03:58:02.652Z,20.88
2018-07-27T03:59:02.889Z,20.92
2018-07-27T04:00:02.633Z,20.87
2018-07-27T04:01:02.905Z,20.87
2018-07-27T04:02:02.894Z,20.87
2018-07-27T04:03:02.373Z,20.84
2018-07-27T04:04:02.923Z,20.85
2018-07-27T04:05:02.902Z,20.7
2018-07-27T04:06:02.715Z,20.72
2018-07-27T04:07:02.640Z,20.75
2018-07-27T04:08:02.925Z,20.72
2018-07-27T04:09:02.916Z,20.87
2018-07-27T04:10:02.900Z,20.93
2018-07-27T04:11:02.641Z,20.95
2018-07-27T04:12:02.658Z,20.96
2018-07-27T04:13:02.399Z,21.03
2018-07-27T04:14:02.387Z,21.06
2018-07-27T04:15:03.205Z,21.09
2018-07-27T04:16:02.471Z,21.15
2018-07-27T04:17:02.934Z,21.12
2018-07-27T04:18:02.678Z,21.2
2018-07-27T04:19:02.653Z,21.24
2018-07-27T04:20:02.420Z,21.22
2018-07-27T04:21:02.690Z,21.32
2018-07-27T04:22:02.422Z,21.42
2018-07-27T04:23:02.687Z,21.45
2018-07-27T04:24:02.961Z,21.58
2018-07-27T04:25:02.684Z,21.7
2018-07-27T04:26:02.683Z,21.92
2018-07-27T04:27:02.930Z,21.99
2018-07-27T04:28:02.974Z,22.08
2018-07-27T04:29:02.950Z,22.18
2018-07-27T04:30:02.961Z,22.25
2018-07-27T04:31:02.449Z,22.35
2018-07-27T04:32:02.694Z,22.53
2018-07-27T04:33:02.867Z,22.6
2018-07-27T04:34:02.695Z,22.68
2018-07-27T04:35:02.722Z,22.75
2018-07-27T04:36:03.071Z,22.81
2018-07-27T04:37:02.959Z,22.91
2018-07-27T04:38:02.709Z,22.96
2018-07-27T04:39:02.448Z,23.02
2018-07-27T04:40:02.998Z,22.94
2018-07-27T04:41:02.495Z,22.99
2018-07-27T04:42:02.741Z,22.98
2018-07-27T04:43:03.245Z,23.02
2018-07-27T04:44:02.979Z,22.96
2018-07-27T04:45:02.729Z,23.06
2018-07-27T04:46:03.069Z,23.12
2018-07-27T04:47:02.998Z,23.23
2018-07-27T04:48:02.772Z,23.27
2018-07-27T04:49:03.017Z,23.25
2018-07-27T04:50:03.038Z,23.36
2018-07-27T04:51:02.808Z,23.43
2018-07-27T04:52:02.764Z,23.5
2018-07-27T04:53:02.768Z,23.51
2018-07-27T04:54:03.050Z,23.68
2018-07-27T04:55:02.520Z,23.77
2018-07-27T04:56:03.033Z,23.88
2018-07-27T04:57:02.818Z,23.98
2018-07-27T04:58:02.531Z,24.01
2018-07-27T04:59:02.791Z,24.03
2018-07-27T05:00:03.045Z,24.02
2018-07-27T05:01:02.785Z,24.11
2018-07-27T05:02:03.059Z,24.23
2018-07-27T05:03:02.718Z,24.26
2018-07-27T05:04:02.806Z,24.42
2018-07-27T05:05:03.068Z,24.47
2018-07-27T05:06:02.923Z,24.54
2018-07-27T05:07:03.097Z,24.61
2018-07-27T05:08:03.088Z,24.78
2018-07-27T05:09:02.850Z,24.85
2018-07-27T05:10:02.592Z,24.85
2018-07-27T05:11:02.621Z,24.92
2018-07-27T05:12:02.857Z,25.08
2018-07-27T05:13:02.994Z,25.16
2018-07-27T05:14:03.118Z,25.29
2018-07-27T05:15:03.126Z,25.4
2018-07-27T05:16:02.932Z,25.58
2018-07-27T05:17:03.151Z,25.65
2018-07-27T05:18:02.907Z,25.87
2018-07-27T05:19:02.889Z,25.95
2018-07-27T05:20:03.182Z,26.07
2018-07-27T05:21:02.997Z,26.06
2018-07-27T05:22:03.172Z,26.18
2018-07-27T05:23:03.158Z,26.26
2018-07-27T05:24:03.159Z,26.37
2018-07-27T05:25:02.684Z,26.45
2018-07-27T05:26:03.223Z,26.48
2018-07-27T05:27:02.927Z,26.59
2018-07-27T05:28:02.940Z,26.74
2018-07-27T05:29:02.680Z,26.7
2018-07-27T05:30:02.738Z,26.85
2018-07-27T05:31:03.038Z,26.9
2018-07-27T05:32:03.223Z,26.97
2018-07-27T05:33:04.269Z,27.02
2018-07-27T05:34:03.005Z,26.96
2018-07-27T05:35:02.971Z,27.05
2018-07-27T05:36:03.008Z,27.29
2018-07-27T05:37:03.021Z,27.37
2018-07-27T05:38:03.265Z,27.48
2018-07-27T05:39:03.011Z,27.58
2018-07-27T05:40:03.009Z,27.59
2018-07-27T05:41:03.016Z,27.55
2018-07-27T05:42:03.019Z,27.49
2018-07-27T05:43:03.030Z,27.48
2018-07-27T05:44:03.034Z,27.33
2018-07-27T05:45:02.808Z,27.15
2018-07-27T05:46:03.043Z,26.97
2018-07-27T05:47:03.677Z,27
2018-07-27T05:48:03.081Z,26.92
2018-07-27T05:49:02.884Z,26.96
2018-07-27T05:50:03.325Z,27.03
2018-07-27T05:51:03.118Z,27.03
2018-07-27T05:52:03.104Z,27.07
2018-07-27T05:53:03.349Z,27.27
2018-07-27T05:54:03.357Z,27.4
2018-07-27T05:55:02.858Z,27.65
2018-07-27T05:56:03.428Z,27.75
2018-07-27T05:57:03.124Z,27.96
2018-07-27T05:58:03.392Z,28.01
2018-07-27T05:59:03.133Z,28.14
2018-07-27T06:00:02.936Z,28.23
2018-07-27T06:01:03.070Z,28.22
2018-07-27T06:02:03.421Z,28.22
2018-07-27T06:03:03.616Z,28.32
2018-07-27T06:04:03.437Z,28.25
2018-07-27T06:05:03.177Z,28.3
2018-07-27T06:06:03.197Z,28.42
2018-07-27T06:07:03.452Z,28.45
2018-07-27T06:08:03.203Z,28.76
2018-07-27T06:09:03.465Z,28.76
2018-07-27T06:10:03.201Z,28.94
2018-07-27T06:11:03.483Z,29.04
2018-07-27T06:12:03.233Z,29.13
2018-07-27T06:13:03.493Z,29.14
2018-07-27T06:14:03.500Z,29.29
2018-07-27T06:15:03.007Z,29.35
2018-07-27T06:16:03.504Z,29.56
2018-07-27T06:17:03.251Z,29.66
2018-07-27T06:18:03.537Z,29.63
2018-07-27T06:19:03.021Z,29.79
2018-07-27T06:20:03.046Z,29.94
2018-07-27T06:21:03.729Z,30.1
2018-07-27T06:22:03.561Z,30.16
2018-07-27T06:23:03.554Z,30.24
2018-07-27T06:24:04.053Z,30.32
2018-07-27T06:25:03.323Z,30.31
2018-07-27T06:26:03.090Z,30.28
2018-07-27T06:27:03.351Z,30.16
2018-07-27T06:28:03.388Z,30.19
2018-07-27T06:29:03.613Z,30.31
2018-07-27T06:30:03.873Z,30.44
2018-07-27T06:31:03.628Z,30.5
2018-07-27T06:32:03.639Z,30.53
2018-07-27T06:33:03.642Z,30.68
2018-07-27T06:34:03.402Z,30.78
2018-07-27T06:35:03.138Z,31.05
2018-07-27T06:36:03.451Z,31.03
2018-07-27T06:37:03.416Z,31.2
2018-07-27T06:38:03.685Z,31.28
2018-07-27T06:39:03.512Z,31.44
2018-07-27T06:40:03.434Z,31.42
2018-07-27T06:41:03.310Z,31.25
2018-07-27T06:42:03.721Z,31.07
2018-07-27T06:43:03.461Z,31.06
2018-07-27T06:44:03.214Z,31.03
2018-07-27T06:45:03.492Z,31.24
2018-07-27T06:46:03.528Z,31.14
2018-07-27T06:47:03.524Z,31.28
2018-07-27T06:48:03.510Z,31.36
2018-07-27T06:49:03.784Z,31.28
2018-07-27T06:50:03.810Z,31.37
2018-07-27T06:51:03.860Z,31.54
2018-07-27T06:52:03.804Z,31.61
2018-07-27T06:53:03.811Z,31.62
2018-07-27T06:54:03.558Z,31.85
2018-07-27T06:55:03.576Z,31.93
2018-07-27T06:56:03.610Z,31.97
2018-07-27T06:57:03.615Z,31.89
2018-07-27T06:58:03.586Z,31.9
2018-07-27T06:59:03.357Z,31.92
2018-07-27T07:00:03.360Z,31.81
2018-07-27T07:01:03.923Z,31.84
2018-07-27T07:02:03.631Z,31.84
2018-07-27T07:03:03.629Z,31.84
2018-07-27T07:04:03.644Z,31.85
2018-07-27T07:05:03.657Z,31.76
2018-07-27T07:06:03.737Z,31.84
2018-07-27T07:07:03.655Z,31.9
2018-07-27T07:08:03.935Z,32.11
2018-07-27T07:09:04.052Z,32.22
2018-07-27T07:10:03.693Z,32.34
2018-07-27T07:11:04.062Z,32.49
2018-07-27T07:12:03.984Z,32.59
2018-07-27T07:13:03.720Z,32.78
2018-07-27T07:14:03.738Z,32.75
2018-07-27T07:15:03.481Z,32.74
2018-07-27T07:16:03.496Z,32.71
2018-07-27T07:17:04.004Z,32.6
2018-07-27T07:18:03.789Z,32.46
2018-07-27T07:19:03.784Z,31.89
2018-07-27T07:20:04.048Z,31.43
2018-07-27T07:21:03.610Z,30.94
2018-07-27T07:22:03.811Z,30.5
2018-07-27T07:23:04.070Z,30.12
2018-07-27T07:24:03.567Z,29.84
2018-07-27T07:25:03.857Z,29.72
2018-07-27T07:26:05.796Z,29.71
2018-07-27T07:27:04.171Z,29.9
2018-07-27T07:28:03.606Z,30.09
2018-07-27T07:29:03.861Z,30.32
2018-07-27T07:30:04.120Z,30.69
2018-07-27T07:31:03.979Z,31.14
2018-07-27T07:32:03.876Z,31.52
2018-07-27T07:33:04.180Z,31.78
2018-07-27T07:34:04.174Z,31.97
2018-07-27T07:35:03.908Z,32.21
2018-07-27T07:36:04.252Z,32.3
2018-07-27T07:37:03.933Z,32.65
2018-07-27T07:38:04.194Z,32.78
2018-07-27T07:39:04.219Z,32.93
2018-07-27T07:40:03.694Z,33.23
2018-07-27T07:41:04.052Z,33.47
2018-07-27T07:42:03.956Z,33.86
2018-07-27T07:43:03.707Z,34.05
2018-07-27T07:44:03.990Z,34.18
2018-07-27T07:45:04.412Z,34.45
2018-07-27T07:46:03.836Z,34.51
2018-07-27T07:47:04.273Z,34.5
2018-07-27T07:48:04.025Z,34.58
2018-07-27T07:49:04.019Z,34.7
2018-07-27T07:50:04.285Z,34.74
2018-07-27T07:51:03.916Z,34.61
2018-07-27T07:52:04.120Z,34.7
2018-07-27T07:53:04.056Z,34.78
2018-07-27T07:54:04.103Z,34.93
2018-07-27T07:55:04.090Z,35.15
2018-07-27T07:56:04.101Z,35.6
2018-07-27T07:57:04.099Z,35.73
2018-07-27T07:58:04.369Z,35.83
2018-07-27T07:59:04.386Z,35.58
2018-07-27T08:00:04.128Z,35.42
2018-07-27T08:01:04.215Z,35.27
2018-07-27T08:02:03.895Z,34.95
2018-07-27T08:03:04.426Z,34.74
2018-07-27T08:04:08.290Z,34.43
2018-07-27T08:05:04.449Z,34.4
2018-07-27T08:06:03.978Z,34.62
2018-07-27T08:07:04.204Z,34.89
2018-07-27T08:08:04.218Z,35.08
2018-07-27T08:09:04.464Z,35.14
2018-07-27T08:10:04.223Z,35.3
2018-07-27T08:11:04.321Z,35.22
2018-07-27T08:12:04.534Z,35.17
2018-07-27T08:13:04.251Z,35.17
2018-07-27T08:14:04.513Z,35.27
2018-07-27T08:15:04.548Z,35.48
2018-07-27T08:16:04.085Z,35.53
2018-07-27T08:17:04.297Z,36.02
2018-07-27T08:18:04.311Z,36.4
2018-07-27T08:19:04.058Z,36.67
2018-07-27T08:20:04.069Z,36.96
2018-07-27T08:21:04.349Z,37.21
2018-07-27T08:22:04.342Z,37.23
2018-07-27T08:23:04.105Z,37.29
2018-07-27T08:24:04.624Z,37.3
2018-07-27T08:25:04.631Z,37.42
2018-07-27T08:26:04.827Z,37.4
2018-07-27T08:27:04.402Z,37.45
2018-07-27T08:28:04.659Z,37.42
2018-07-27T08:29:04.427Z,37.36
2018-07-27T08:30:04.695Z,37.18
2018-07-27T08:31:04.456Z,36.93
2018-07-27T08:32:04.713Z,36.49
2018-07-27T08:33:04.483Z,36.04
2018-07-27T08:34:04.210Z,35.92
2018-07-27T08:35:04.230Z,35.68
2018-07-27T08:36:04.522Z,35.71
2018-07-27T08:37:04.766Z,35.68
2018-07-27T08:38:04.791Z,35.78
2018-07-27T08:39:04.674Z,36.02
2018-07-27T08:40:04.286Z,36.17
2018-07-27T08:41:04.325Z,36.09
2018-07-27T08:42:04.300Z,36.16
2018-07-27T08:43:04.816Z,36.39
2018-07-27T08:44:04.592Z,36.72
2018-07-27T08:45:04.865Z,36.95
2018-07-27T08:46:04.653Z,37.1
2018-07-27T08:47:04.860Z,37.06
2018-07-27T08:48:04.624Z,37.21
2018-07-27T08:49:04.888Z,37.39
2018-07-27T08:50:04.655Z,37.51
2018-07-27T08:51:04.674Z,37.36
2018-07-27T08:52:04.920Z,37.18
2018-07-27T08:53:04.933Z,37.01
2018-07-27T08:54:04.939Z,36.99
2018-07-27T08:55:04.438Z,36.79
2018-07-27T08:56:04.744Z,36.62
2018-07-27T08:57:04.715Z,36.49
2018-07-27T08:58:04.720Z,36.12
2018-07-27T08:59:04.757Z,35.73
2018-07-27T09:00:04.766Z,35.29
2018-07-27T09:01:04.571Z,34.89
2018-07-27T09:02:05.031Z,34.5
2018-07-27T09:03:04.794Z,34.1
2018-07-27T09:04:04.891Z,33.8
2018-07-27T09:05:04.814Z,33.49
2018-07-27T09:06:04.821Z,33.32
2018-07-27T09:07:04.818Z,33.01
2018-07-27T09:08:04.861Z,32.86
2018-07-27T09:09:04.862Z,32.73
2018-07-27T09:10:06.746Z,32.75
2018-07-27T09:11:05.212Z,32.71
2018-07-27T09:12:04.898Z,32.87
2018-07-27T09:13:05.153Z,32.83
2018-07-27T09:14:04.907Z,32.6
2018-07-27T09:15:05.192Z,32.6
2018-07-27T09:16:04.995Z,32.43
2018-07-27T09:17:04.921Z,32.41
2018-07-27T09:18:05.210Z,32.33
2018-07-27T09:19:04.673Z,32.18
2018-07-27T09:20:05.736Z,31.92
2018-07-27T09:21:05.240Z,31.7
2018-07-27T09:22:05.235Z,31.44
2018-07-27T09:23:04.988Z,31.37
2018-07-27T09:24:05.242Z,31.2
2018-07-27T09:25:06.808Z,31.06
2018-07-27T09:26:05.032Z,30.84
2018-07-27T09:27:05.028Z,30.91
2018-07-27T09:28:05.256Z,30.92
2018-07-27T09:29:05.253Z,30.97
2018-07-27T09:30:05.279Z,30.94
2018-07-27T09:31:05.315Z,31.1
2018-07-27T09:32:05.317Z,31.27
2018-07-27T09:33:05.087Z,31.46
2018-07-27T09:34:05.087Z,31.62
2018-07-27T09:35:05.146Z,31.65
2018-07-27T09:36:05.184Z,31.81
2018-07-27T09:37:05.348Z,31.85
2018-07-27T09:38:05.100Z,31.69
2018-07-27T09:39:04.848Z,31.8
2018-07-27T09:40:05.404Z,31.69
2018-07-27T09:41:05.111Z,31.71
2018-07-27T09:42:05.117Z,31.8
2018-07-27T09:43:05.369Z,31.96
2018-07-27T09:44:05.172Z,32.15
2018-07-27T09:45:05.155Z,32.29
2018-07-27T09:46:05.524Z,32.37
2018-07-27T09:47:05.438Z,32.33
2018-07-27T09:48:05.413Z,32.38
2018-07-27T09:49:05.461Z,32.55
2018-07-27T09:50:05.470Z,32.53
2018-07-27T09:51:05.200Z,32.53
2018-07-27T09:52:05.207Z,32.68
2018-07-27T09:53:05.484Z,32.7
2018-07-27T09:54:05.212Z,32.73
2018-07-27T09:55:05.474Z,32.86
2018-07-27T09:56:05.235Z,32.86
2018-07-27T09:57:05.500Z,32.83
2018-07-27T09:58:05.732Z,32.89
2018-07-27T09:59:05.242Z,32.97
2018-07-27T10:00:05.257Z,33.05
2018-07-27T10:01:05.104Z,33.08
2018-07-27T10:02:05.285Z,33.11
2018-07-27T10:03:05.274Z,33.12
2018-07-27T10:04:05.540Z,33.31
2018-07-27T10:05:05.548Z,33.42
2018-07-27T10:06:05.625Z,33.31
2018-07-27T10:07:05.573Z,33.34
2018-07-27T10:08:05.554Z,33.24
2018-07-27T10:09:05.318Z,33.23
2018-07-27T10:10:05.582Z,33.23
2018-07-27T10:11:05.566Z,33.24
2018-07-27T10:12:05.580Z,33.22
2018-07-27T10:13:05.340Z,33.15
2018-07-27T10:14:05.583Z,33.23
2018-07-27T10:15:05.616Z,33.31
2018-07-27T10:16:05.414Z,33.3
2018-07-27T10:17:05.634Z,33.27
2018-07-27T10:18:05.648Z,33.11
2018-07-27T10:19:05.179Z,33.08
2018-07-27T10:20:05.449Z,33.01
2018-07-27T10:21:05.269Z,33.04
2018-07-27T10:22:05.140Z,33.01
2018-07-27T10:23:05.411Z,32.78
2018-07-27T10:24:05.459Z,32.75
2018-07-27T10:25:05.416Z,32.68
2018-07-27T10:26:05.430Z,32.64
2018-07-27T10:27:05.695Z,32.41
2018-07-27T10:28:05.698Z,32.38
2018-07-27T10:29:05.713Z,32.43
2018-07-27T10:30:05.474Z,32.58
2018-07-27T10:31:05.543Z,32.73
2018-07-27T10:32:05.739Z,32.83
2018-07-27T10:33:05.733Z,32.85
2018-07-27T10:34:05.479Z,32.7
2018-07-27T10:35:05.486Z,32.83
2018-07-27T10:36:05.767Z,32.93
2018-07-27T10:37:05.763Z,33
2018-07-27T10:38:05.521Z,33.08
2018-07-27T10:39:05.780Z,33.23
2018-07-27T10:40:05.528Z,33.36
2018-07-27T10:41:05.832Z,33.4
2018-07-27T10:42:05.811Z,33.43
2018-07-27T10:43:05.829Z,33.49
2018-07-27T10:44:05.563Z,33.45
2018-07-27T10:45:05.568Z,33.47
2018-07-27T10:46:05.618Z,33.37
2018-07-27T10:47:05.326Z,33.15
2018-07-27T10:48:05.590Z,33.15
2018-07-27T10:49:05.607Z,33.02
2018-07-27T10:50:05.610Z,33.01
2018-07-27T10:51:05.641Z,33.01
2018-07-27T10:52:05.878Z,33.05
2018-07-27T10:53:05.634Z,33.11
2018-07-27T10:54:05.886Z,32.97
2018-07-27T10:55:05.641Z,32.97
2018-07-27T10:56:05.985Z,32.87
2018-07-27T10:57:05.645Z,32.73
2018-07-27T10:58:05.702Z,32.71
2018-07-27T10:59:05.986Z,32.73
2018-07-27T11:00:05.945Z,32.77
2018-07-27T11:01:06.052Z,32.65
2018-07-27T11:02:05.443Z,32.73
2018-07-27T11:03:05.949Z,32.85
2018-07-27T11:04:05.962Z,32.89
2018-07-27T11:05:05.960Z,32.97
2018-07-27T11:06:05.757Z,33
2018-07-27T11:07:05.983Z,32.93
2018-07-27T11:08:05.979Z,32.83
2018-07-27T11:09:05.725Z,32.77
2018-07-27T11:10:05.499Z,32.58
2018-07-27T11:11:06.046Z,32.67
2018-07-27T11:12:05.759Z,32.56
2018-07-27T11:13:05.753Z,32.58
2018-07-27T11:14:05.764Z,32.56
2018-07-27T11:15:05.518Z,32.58
2018-07-27T11:16:06.060Z,32.64
2018-07-27T11:17:05.810Z,32.74
2018-07-27T11:18:06.066Z,32.87
2018-07-27T11:19:05.816Z,33
2018-07-27T11:20:05.833Z,33.08
2018-07-27T11:21:06.079Z,33.07
2018-07-27T11:22:06.083Z,33.08
2018-07-27T11:23:06.077Z,33
2018-07-27T11:24:05.611Z,32.73
2018-07-27T11:25:06.115Z,32.67
2018-07-27T11:26:05.658Z,32.55
2018-07-27T11:27:06.119Z,32.48
2018-07-27T11:28:05.631Z,32.45
2018-07-27T11:29:06.134Z,32.43
2018-07-27T11:30:05.886Z,32.49
2018-07-27T11:31:06.109Z,32.64
2018-07-27T11:32:06.192Z,32.64
2018-07-27T11:33:06.186Z,32.77
2018-07-27T11:34:05.974Z,33
2018-07-27T11:35:05.680Z,33.02
2018-07-27T11:36:06.270Z,33.12
2018-07-27T11:37:06.508Z,33.02
2018-07-27T11:38:05.951Z,33.04
2018-07-27T11:39:05.974Z,32.95
2018-07-27T11:40:05.977Z,32.93
2018-07-27T11:41:05.763Z,32.96
2018-07-27T11:42:06.243Z,32.92
2018-07-27T11:43:05.977Z,32.87
2018-07-27T11:44:05.988Z,32.93
2018-07-27T11:45:06.008Z,32.96
2018-07-27T11:46:06.117Z,33.05
2018-07-27T11:47:06.269Z,33.07
2018-07-27T11:48:06.024Z,33.11
2018-07-27T11:49:06.274Z,33.07
2018-07-27T11:50:05.777Z,33.11
2018-07-27T11:51:06.189Z,33.11
2018-07-27T11:52:05.787Z,33.09
2018-07-27T11:53:06.058Z,32.9
2018-07-27T11:54:06.168Z,32.73
2018-07-27T11:55:06.127Z,32.68
2018-07-27T11:56:06.110Z,32.68
2018-07-27T11:57:05.827Z,32.96
2018-07-27T11:58:05.837Z,33.12
2018-07-27T11:59:06.093Z,33.36
2018-07-27T12:00:06.389Z,33.49
2018-07-27T12:01:06.143Z,33.61
2018-07-27T12:02:06.124Z,33.79
2018-07-27T12:03:06.417Z,34.01
2018-07-27T12:04:06.153Z,34.14
2018-07-27T12:05:06.134Z,34.25
2018-07-27T12:06:09.064Z,34.45
2018-07-27T12:07:06.310Z,34.52
2018-07-27T12:08:05.897Z,34.5
2018-07-27T12:09:06.174Z,34.35
2018-07-27T12:10:06.448Z,34.36
2018-07-27T12:11:06.216Z,34.18
2018-07-27T12:12:06.193Z,34.11
2018-07-27T12:13:06.450Z,33.98
2018-07-27T12:14:07.109Z,33.94
2018-07-27T12:15:06.843Z,34.11
2018-07-27T12:16:06.260Z,34.21
2018-07-27T12:17:06.479Z,34.33
2018-07-27T12:18:05.976Z,34.27
2018-07-27T12:19:05.977Z,34.29
2018-07-27T12:20:06.007Z,34.11
2018-07-27T12:21:06.587Z,33.92
2018-07-27T12:22:06.004Z,33.79
2018-07-27T12:23:06.299Z,33.69
2018-07-27T12:24:06.289Z,33.55
2018-07-27T12:25:06.555Z,33.59
2018-07-27T12:26:06.295Z,33.34
2018-07-27T12:27:06.487Z,33.27
2018-07-27T12:28:06.311Z,33.2
2018-07-27T12:29:06.321Z,33.11
2018-07-27T12:30:06.067Z,33.11
2018-07-27T12:31:06.626Z,33.19
2018-07-27T12:32:06.338Z,33.12
2018-07-27T12:33:06.352Z,33.19
2018-07-27T12:34:06.104Z,33.14
2018-07-27T12:35:06.618Z,33.19
2018-07-27T12:36:06.144Z,33.2
2018-07-27T12:37:06.378Z,33.07
2018-07-27T12:38:06.378Z,33.15
2018-07-27T12:39:06.800Z,32.95
2018-07-27T12:40:06.415Z,32.83
2018-07-27T12:41:06.490Z,32.71
2018-07-27T12:42:06.163Z,32.51
2018-07-27T12:43:06.423Z,32.33
2018-07-27T12:44:06.692Z,32.26
2018-07-27T12:45:06.683Z,32.22
2018-07-27T12:46:06.524Z,32.3
2018-07-27T12:47:06.458Z,32.45
2018-07-27T12:48:06.741Z,32.46
2018-07-27T12:49:06.729Z,32.63
2018-07-27T12:50:06.738Z,32.67
2018-07-27T12:51:06.533Z,32.82
2018-07-27T12:52:06.828Z,32.73
2018-07-27T12:53:06.494Z,32.82
2018-07-27T12:54:06.496Z,32.89
2018-07-27T12:55:06.780Z,32.8
2018-07-27T12:56:06.554Z,32.63